sensor_id;sensor_type;location;lat;lon;timestamp;P1;P2;P0
73305;PMS5003;61530;51.158;0.880;2023-04-01T00:00:54;8;8;5
73305;PMS5003;61530;51.158;0.880;2023-04-01T00:01:58;9;9;5
73305;PMS5003;61530;51.158;0.880;2023-04-01T00:03:01;10;9;5
73305;PMS5003;61530;51.158;0.880;2023-04-01T00:04:05;10;8;5
73305;PMS5003;61530;51.158;0.880;2023-04-01T00:05:10;8;7;5
73305;PMS5003;61530;51.158;0.880;2023-04-01T00:06:14;10;8;5
73305;PMS5003;61530;51.158;0.880;2023-04-01T00:07:17;12;9;6
73305;PMS5003;61530;51.158;0.880;2023-04-01T00:08:20;11;9;6
73305;PMS5003;61530;51.158;0.880;2023-04-01T00:09:26;8;8;4
73305;PMS5003;61530;51.158;0.880;2023-04-01T00:10:30;8;7;4
73305;PMS5003;61530;51.158;0.880;2023-04-01T00:11:33;8;8;5
73305;PMS5003;61530;51.158;0.880;2023-04-01T00:12:37;12;12;4
73305;PMS5003;61530;51.158;0.880;2023-04-01T00:13:42;9;8;4
73305;PMS5003;61530;51.158;0.880;2023-04-01T00:14:45;10;8;5
73305;PMS5003;61530;51.158;0.880;2023-04-01T00:15:49;8;7;4
73305;PMS5003;61530;51.158;0.880;2023-04-01T00:16:52;8;8;5
73305;PMS5003;61530;51.158;0.880;2023-04-01T00:17:58;9;7;5
73305;PMS5003;61530;51.158;0.880;2023-04-01T00:19:02;10;8;4
73305;PMS5003;61530;51.158;0.880;2023-04-01T00:20:05;9;6;3
73305;PMS5003;61530;51.158;0.880;2023-04-01T00:21:09;11;8;5
73305;PMS5003;61530;51.158;0.880;2023-04-01T00:22:14;8;7;5
73305;PMS5003;61530;51.158;0.880;2023-04-01T00:23:18;8;7;4
73305;PMS5003;61530;51.158;0.880;2023-04-01T00:24:21;12;12;4
73305;PMS5003;61530;51.158;0.880;2023-04-01T00:25:24;7;7;5
73305;PMS5003;61530;51.158;0.880;2023-04-01T00:26:30;9;7;4
73305;PMS5003;61530;51.158;0.880;2023-04-01T00:27:34;7;7;4
73305;PMS5003;61530;51.158;0.880;2023-04-01T00:28:37;10;10;5
73305;PMS5003;61530;51.158;0.880;2023-04-01T00:29:41;8;7;4
73305;PMS5003;61530;51.158;0.880;2023-04-01T00:30:46;8;8;4
73305;PMS5003;61530;51.158;0.880;2023-04-01T00:31:49;10;8;5
73305;PMS5003;61530;51.158;0.880;2023-04-01T00:32:53;9;9;4
73305;PMS5003;61530;51.158;0.880;2023-04-01T00:33:57;16;14;5
73305;PMS5003;61530;51.158;0.880;2023-04-01T00:35:02;8;8;6
73305;PMS5003;61530;51.158;0.880;2023-04-01T00:36:06;9;9;4
73305;PMS5003;61530;51.158;0.880;2023-04-01T00:37:09;9;8;5
73305;PMS5003;61530;51.158;0.880;2023-04-01T00:38:13;10;9;5
73305;PMS5003;61530;51.158;0.880;2023-04-01T00:39:18;11;11;6
73305;PMS5003;61530;51.158;0.880;2023-04-01T00:40:24;7;7;4
73305;PMS5003;61530;51.158;0.880;2023-04-01T00:41:25;11;8;5
73305;PMS5003;61530;51.158;0.880;2023-04-01T00:42:28;8;8;5
73305;PMS5003;61530;51.158;0.880;2023-04-01T00:43:34;8;7;5
73305;PMS5003;61530;51.158;0.880;2023-04-01T00:44:38;9;8;5
73305;PMS5003;61530;51.158;0.880;2023-04-01T00:45:42;9;9;5
73305;PMS5003;61530;51.158;0.880;2023-04-01T00:46:45;17;11;6
73305;PMS5003;61530;51.158;0.880;2023-04-01T00:47:50;9;9;5
73305;PMS5003;61530;51.158;0.880;2023-04-01T00:48:54;9;9;5
73305;PMS5003;61530;51.158;0.880;2023-04-01T00:49:57;10;10;6
73305;PMS5003;61530;51.158;0.880;2023-04-01T00:51:02;9;7;5
73305;PMS5003;61530;51.158;0.880;2023-04-01T00:52:07;10;9;5
73305;PMS5003;61530;51.158;0.880;2023-04-01T00:53:10;12;9;4
73305;PMS5003;61530;51.158;0.880;2023-04-01T00:54:13;8;8;4
73305;PMS5003;61530;51.158;0.880;2023-04-01T00:55:17;7;7;4
73305;PMS5003;61530;51.158;0.880;2023-04-01T00:56:24;9;9;5
73305;PMS5003;61530;51.158;0.880;2023-04-01T00:57:27;8;8;4
73305;PMS5003;61530;51.158;0.880;2023-04-01T00:58:30;11;10;3
73305;PMS5003;61530;51.158;0.880;2023-04-01T00:59:33;8;5;4
73305;PMS5003;61530;51.158;0.880;2023-04-01T01:00:38;7;7;4
73305;PMS5003;61530;51.158;0.880;2023-04-01T01:01:42;7;7;3
73305;PMS5003;61530;51.158;0.880;2023-04-01T01:02:46;6;6;3
73305;PMS5003;61530;51.158;0.880;2023-04-01T01:03:49;9;9;5
73305;PMS5003;61530;51.158;0.880;2023-04-01T01:04:54;7;7;4
73305;PMS5003;61530;51.158;0.880;2023-04-01T01:06:03;8;8;5
73305;PMS5003;61530;51.158;0.880;2023-04-01T01:07:04;5;5;3
73305;PMS5003;61530;51.158;0.880;2023-04-01T01:08:06;8;6;5
73305;PMS5003;61530;51.158;0.880;2023-04-01T01:09:12;9;8;5
73305;PMS5003;61530;51.158;0.880;2023-04-01T01:10:15;8;7;4
73305;PMS5003;61530;51.158;0.880;2023-04-01T01:11:18;7;6;4
73305;PMS5003;61530;51.158;0.880;2023-04-01T01:12:22;7;6;3
73305;PMS5003;61530;51.158;0.880;2023-04-01T01:13:28;6;6;3
73305;PMS5003;61530;51.158;0.880;2023-04-01T01:14:33;6;6;4
73305;PMS5003;61530;51.158;0.880;2023-04-01T01:15:35;8;8;4
73305;PMS5003;61530;51.158;0.880;2023-04-01T01:16:38;6;5;3
73305;PMS5003;61530;51.158;0.880;2023-04-01T01:17:44;6;6;4
73305;PMS5003;61530;51.158;0.880;2023-04-01T01:18:47;8;8;4
73305;PMS5003;61530;51.158;0.880;2023-04-01T01:19:57;10;9;3
73305;PMS5003;61530;51.158;0.880;2023-04-01T01:34:34;11;8;4
73305;PMS5003;61530;51.158;0.880;2023-04-01T01:35:34;9;9;5
73305;PMS5003;61530;51.158;0.880;2023-04-01T01:36:36;7;7;4
73305;PMS5003;61530;51.158;0.880;2023-04-01T01:37:42;6;6;4
73305;PMS5003;61530;51.158;0.880;2023-04-01T01:38:46;8;8;4
73305;PMS5003;61530;51.158;0.880;2023-04-01T01:39:51;7;7;5
73305;PMS5003;61530;51.158;0.880;2023-04-01T01:40:53;7;7;5
73305;PMS5003;61530;51.158;0.880;2023-04-01T01:41:59;11;10;4
73305;PMS5003;61530;51.158;0.880;2023-04-01T01:43:04;9;9;5
73305;PMS5003;61530;51.158;0.880;2023-04-01T01:44:06;8;7;4
73305;PMS5003;61530;51.158;0.880;2023-04-01T01:45:09;8;8;5
73305;PMS5003;61530;51.158;0.880;2023-04-01T01:46:16;12;9;5
73305;PMS5003;61530;51.158;0.880;2023-04-01T01:47:18;10;9;6
73305;PMS5003;61530;51.158;0.880;2023-04-01T01:48:21;6;6;4
73305;PMS5003;61530;51.158;0.880;2023-04-01T01:49:25;8;8;5
73305;PMS5003;61530;51.158;0.880;2023-04-01T01:50:30;9;7;5
73305;PMS5003;61530;51.158;0.880;2023-04-01T01:51:34;9;9;5
73305;PMS5003;61530;51.158;0.880;2023-04-01T01:52:37;8;8;5
73305;PMS5003;61530;51.158;0.880;2023-04-01T01:53:40;9;9;6
73305;PMS5003;61530;51.158;0.880;2023-04-01T01:54:47;8;8;6
73305;PMS5003;61530;51.158;0.880;2023-04-01T01:55:50;9;9;5
73305;PMS5003;61530;51.158;0.880;2023-04-01T01:56:55;13;11;5
73305;PMS5003;61530;51.158;0.880;2023-04-01T01:57:57;12;12;7
73305;PMS5003;61530;51.158;0.880;2023-04-01T01:59:03;12;11;6
73305;PMS5003;61530;51.158;0.880;2023-04-01T02:00:07;17;14;6
73305;PMS5003;61530;51.158;0.880;2023-04-01T02:01:10;11;10;6
73305;PMS5003;61530;51.158;0.880;2023-04-01T02:02:12;12;10;6
73305;PMS5003;61530;51.158;0.880;2023-04-01T02:03:18;11;10;7
73305;PMS5003;61530;51.158;0.880;2023-04-01T02:04:22;12;11;6
73305;PMS5003;61530;51.158;0.880;2023-04-01T02:05:26;11;10;6
73305;PMS5003;61530;51.158;0.880;2023-04-01T02:06:30;10;10;7
73305;PMS5003;61530;51.158;0.880;2023-04-01T02:07:34;11;11;8
73305;PMS5003;61530;51.158;0.880;2023-04-01T02:08:39;10;10;5
73305;PMS5003;61530;51.158;0.880;2023-04-01T02:09:41;9;9;6
73305;PMS5003;61530;51.158;0.880;2023-04-01T02:10:47;10;10;6
73305;PMS5003;61530;51.158;0.880;2023-04-01T02:11:51;10;10;7
73305;PMS5003;61530;51.158;0.880;2023-04-01T02:12:54;11;10;8
73305;PMS5003;61530;51.158;0.880;2023-04-01T02:13:58;14;14;7
73305;PMS5003;61530;51.158;0.880;2023-04-01T02:15:03;11;10;5
73305;PMS5003;61530;51.158;0.880;2023-04-01T02:16:10;10;9;6
73305;PMS5003;61530;51.158;0.880;2023-04-01T02:17:10;12;12;5
73305;PMS5003;61530;51.158;0.880;2023-04-01T02:18:13;8;8;5
73305;PMS5003;61530;51.158;0.880;2023-04-01T02:19:17;10;10;6
73305;PMS5003;61530;51.158;0.880;2023-04-01T02:20:22;11;10;6
73305;PMS5003;61530;51.158;0.880;2023-04-01T02:21:27;10;9;6
73305;PMS5003;61530;51.158;0.880;2023-04-01T02:22:29;9;9;6
73305;PMS5003;61530;51.158;0.880;2023-04-01T02:23:33;11;9;6
73305;PMS5003;61530;51.158;0.880;2023-04-01T02:24:38;8;8;5
73305;PMS5003;61530;51.158;0.880;2023-04-01T02:25:41;10;10;6
73305;PMS5003;61530;51.158;0.880;2023-04-01T02:26:45;9;9;6
73305;PMS5003;61530;51.158;0.880;2023-04-01T02:27:49;9;9;5
73305;PMS5003;61530;51.158;0.880;2023-04-01T02:28:54;11;11;5
73305;PMS5003;61530;51.158;0.880;2023-04-01T02:29:58;10;10;5
73305;PMS5003;61530;51.158;0.880;2023-04-01T02:31:01;10;9;6
73305;PMS5003;61530;51.158;0.880;2023-04-01T02:32:05;8;8;5
73305;PMS5003;61530;51.158;0.880;2023-04-01T02:33:10;13;13;7
73305;PMS5003;61530;51.158;0.880;2023-04-01T02:34:13;8;8;4
73305;PMS5003;61530;51.158;0.880;2023-04-01T02:35:18;10;10;5
73305;PMS5003;61530;51.158;0.880;2023-04-01T02:36:21;8;8;5
73305;PMS5003;61530;51.158;0.880;2023-04-01T02:37:26;10;10;6
73305;PMS5003;61530;51.158;0.880;2023-04-01T02:38:30;9;9;5
73305;PMS5003;61530;51.158;0.880;2023-04-01T02:39:33;11;11;5
73305;PMS5003;61530;51.158;0.880;2023-04-01T02:40:45;11;9;5
73305;PMS5003;61530;51.158;0.880;2023-04-01T02:41:43;9;9;6
73305;PMS5003;61530;51.158;0.880;2023-04-01T02:42:46;13;12;6
73305;PMS5003;61530;51.158;0.880;2023-04-01T02:43:49;11;10;6
73305;PMS5003;61530;51.158;0.880;2023-04-01T02:44:53;8;8;5
73305;PMS5003;61530;51.158;0.880;2023-04-01T02:45:58;10;10;5
73305;PMS5003;61530;51.158;0.880;2023-04-01T02:47:02;13;11;6
73305;PMS5003;61530;51.158;0.880;2023-04-01T02:48:05;11;9;5
73305;PMS5003;61530;51.158;0.880;2023-04-01T02:49:09;9;9;5
73305;PMS5003;61530;51.158;0.880;2023-04-01T02:50:14;7;7;4
73305;PMS5003;61530;51.158;0.880;2023-04-01T02:51:17;9;9;6
73305;PMS5003;61530;51.158;0.880;2023-04-01T02:52:21;7;7;4
73305;PMS5003;61530;51.158;0.880;2023-04-01T02:53:24;9;8;5
73305;PMS5003;61530;51.158;0.880;2023-04-01T02:54:30;8;8;4
73305;PMS5003;61530;51.158;0.880;2023-04-01T02:55:34;7;7;5
73305;PMS5003;61530;51.158;0.880;2023-04-01T02:56:37;8;8;5
73305;PMS5003;61530;51.158;0.880;2023-04-01T02:57:41;8;8;5
73305;PMS5003;61530;51.158;0.880;2023-04-01T02:58:46;9;8;5
73305;PMS5003;61530;51.158;0.880;2023-04-01T02:59:49;6;5;3
73305;PMS5003;61530;51.158;0.880;2023-04-01T03:00:55;9;7;4
73305;PMS5003;61530;51.158;0.880;2023-04-01T03:01:56;7;7;5
73305;PMS5003;61530;51.158;0.880;2023-04-01T03:03:03;6;6;3
73305;PMS5003;61530;51.158;0.880;2023-04-01T03:04:06;5;5;2
73305;PMS5003;61530;51.158;0.880;2023-04-01T03:05:09;5;5;3
73305;PMS5003;61530;51.158;0.880;2023-04-01T03:06:13;4;4;3
73305;PMS5003;61530;51.158;0.880;2023-04-01T03:07:18;2;2;1
73305;PMS5003;61530;51.158;0.880;2023-04-01T03:08:22;2;2;2
73305;PMS5003;61530;51.158;0.880;2023-04-01T03:09:25;3;3;2
73305;PMS5003;61530;51.158;0.880;2023-04-01T03:10:28;4;4;3
73305;PMS5003;61530;51.158;0.880;2023-04-01T03:11:34;6;6;3
73305;PMS5003;61530;51.158;0.880;2023-04-01T03:12:38;2;2;2
73305;PMS5003;61530;51.158;0.880;2023-04-01T03:13:41;4;4;2
73305;PMS5003;61530;51.158;0.880;2023-04-01T03:14:45;4;3;2
73305;PMS5003;61530;51.158;0.880;2023-04-01T03:15:50;4;4;2
73305;PMS5003;61530;51.158;0.880;2023-04-01T03:16:53;6;5;3
73305;PMS5003;61530;51.158;0.880;2023-04-01T03:17:57;4;3;1
73305;PMS5003;61530;51.158;0.880;2023-04-01T03:19:00;4;4;3
73305;PMS5003;61530;51.158;0.880;2023-04-01T03:20:07;5;5;3
73305;PMS5003;61530;51.158;0.880;2023-04-01T03:21:14;5;5;2
73305;PMS5003;61530;51.158;0.880;2023-04-01T03:22:13;4;4;2
73305;PMS5003;61530;51.158;0.880;2023-04-01T03:23:17;4;4;2
73305;PMS5003;61530;51.158;0.880;2023-04-01T03:24:22;5;5;3
73305;PMS5003;61530;51.158;0.880;2023-04-01T03:25:25;5;5;3
73305;PMS5003;61530;51.158;0.880;2023-04-01T03:26:29;5;4;2
73305;PMS5003;61530;51.158;0.880;2023-04-01T03:27:33;3;3;2
73305;PMS5003;61530;51.158;0.880;2023-04-01T03:28:38;7;5;3
73305;PMS5003;61530;51.158;0.880;2023-04-01T03:29:42;4;4;2
73305;PMS5003;61530;51.158;0.880;2023-04-01T03:30:45;3;3;2
73305;PMS5003;61530;51.158;0.880;2023-04-01T03:31:49;5;5;2
73305;PMS5003;61530;51.158;0.880;2023-04-01T03:32:54;4;4;3
73305;PMS5003;61530;51.158;0.880;2023-04-01T03:33:57;6;5;3
73305;PMS5003;61530;51.158;0.880;2023-04-01T03:35:01;5;5;3
73305;PMS5003;61530;51.158;0.880;2023-04-01T03:36:05;6;6;4
73305;PMS5003;61530;51.158;0.880;2023-04-01T03:37:10;4;4;2
73305;PMS5003;61530;51.158;0.880;2023-04-01T03:38:14;4;4;2
73305;PMS5003;61530;51.158;0.880;2023-04-01T03:39:17;6;6;3
73305;PMS5003;61530;51.158;0.880;2023-04-01T03:40:21;4;4;2
73305;PMS5003;61530;51.158;0.880;2023-04-01T03:41:26;4;4;3
73305;PMS5003;61530;51.158;0.880;2023-04-01T03:42:29;7;5;3
73305;PMS5003;61530;51.158;0.880;2023-04-01T03:43:33;6;5;3
73305;PMS5003;61530;51.158;0.880;2023-04-01T03:44:36;5;5;3
73305;PMS5003;61530;51.158;0.880;2023-04-01T03:45:43;6;6;3
73305;PMS5003;61530;51.158;0.880;2023-04-01T03:46:46;6;5;2
73305;PMS5003;61530;51.158;0.880;2023-04-01T03:47:49;5;5;3
73305;PMS5003;61530;51.158;0.880;2023-04-01T03:48:53;5;5;3
73305;PMS5003;61530;51.158;0.880;2023-04-01T03:49:58;7;5;3
73305;PMS5003;61530;51.158;0.880;2023-04-01T03:51:02;5;5;3
73305;PMS5003;61530;51.158;0.880;2023-04-01T03:52:07;5;5;3
73305;PMS5003;61530;51.158;0.880;2023-04-01T03:53:08;6;6;4
73305;PMS5003;61530;51.158;0.880;2023-04-01T03:54:14;7;7;4
73305;PMS5003;61530;51.158;0.880;2023-04-01T03:55:18;7;7;3
73305;PMS5003;61530;51.158;0.880;2023-04-01T03:56:21;6;6;3
73305;PMS5003;61530;51.158;0.880;2023-04-01T03:57:25;6;6;3
73305;PMS5003;61530;51.158;0.880;2023-04-01T03:58:30;5;5;3
73305;PMS5003;61530;51.158;0.880;2023-04-01T03:59:33;4;4;3
73305;PMS5003;61530;51.158;0.880;2023-04-01T04:00:37;6;6;3
73305;PMS5003;61530;51.158;0.880;2023-04-01T04:01:40;5;5;3
73305;PMS5003;61530;51.158;0.880;2023-04-01T04:02:46;7;5;3
73305;PMS5003;61530;51.158;0.880;2023-04-01T04:03:50;4;4;3
73305;PMS5003;61530;51.158;0.880;2023-04-01T04:04:53;5;5;3
73305;PMS5003;61530;51.158;0.880;2023-04-01T04:05:57;4;4;2
73305;PMS5003;61530;51.158;0.880;2023-04-01T04:07:02;4;4;3
73305;PMS5003;61530;51.158;0.880;2023-04-01T04:08:05;3;3;3
73305;PMS5003;61530;51.158;0.880;2023-04-01T04:09:09;5;5;3
73305;PMS5003;61530;51.158;0.880;2023-04-01T04:10:12;4;4;3
73305;PMS5003;61530;51.158;0.880;2023-04-01T04:11:18;5;5;3
73305;PMS5003;61530;51.158;0.880;2023-04-01T04:12:22;5;5;3
73305;PMS5003;61530;51.158;0.880;2023-04-01T04:13:25;3;3;2
73305;PMS5003;61530;51.158;0.880;2023-04-01T04:14:29;5;5;3
73305;PMS5003;61530;51.158;0.880;2023-04-01T04:15:34;6;4;2
73305;PMS5003;61530;51.158;0.880;2023-04-01T04:16:37;5;5;3
73305;PMS5003;61530;51.158;0.880;2023-04-01T04:17:41;5;4;3
73305;PMS5003;61530;51.158;0.880;2023-04-01T04:18:45;4;4;3
73305;PMS5003;61530;51.158;0.880;2023-04-01T04:19:50;7;5;4
73305;PMS5003;61530;51.158;0.880;2023-04-01T04:20:54;5;5;3
73305;PMS5003;61530;51.158;0.880;2023-04-01T04:21:57;6;6;3
73305;PMS5003;61530;51.158;0.880;2023-04-01T04:23:01;4;4;2
73305;PMS5003;61530;51.158;0.880;2023-04-01T04:24:06;6;6;2
73305;PMS5003;61530;51.158;0.880;2023-04-01T04:25:09;3;3;2
73305;PMS5003;61530;51.158;0.880;2023-04-01T04:26:14;6;6;3
73305;PMS5003;61530;51.158;0.880;2023-04-01T04:27:16;5;5;3
73305;PMS5003;61530;51.158;0.880;2023-04-01T04:28:22;7;6;3
73305;PMS5003;61530;51.158;0.880;2023-04-01T04:29:26;4;4;2
73305;PMS5003;61530;51.158;0.880;2023-04-01T04:30:29;9;7;4
73305;PMS5003;61530;51.158;0.880;2023-04-01T04:31:33;5;5;3
73305;PMS5003;61530;51.158;0.880;2023-04-01T04:32:38;4;4;2
73305;PMS5003;61530;51.158;0.880;2023-04-01T04:33:41;7;5;4
73305;PMS5003;61530;51.158;0.880;2023-04-01T04:34:45;6;6;4
73305;PMS5003;61530;51.158;0.880;2023-04-01T04:35:49;5;5;3
73305;PMS5003;61530;51.158;0.880;2023-04-01T04:36:54;7;5;4
73305;PMS5003;61530;51.158;0.880;2023-04-01T04:37:58;6;6;3
73305;PMS5003;61530;51.158;0.880;2023-04-01T04:39:01;5;5;3
73305;PMS5003;61530;51.158;0.880;2023-04-01T04:40:05;4;4;2
73305;PMS5003;61530;51.158;0.880;2023-04-01T04:41:11;3;3;2
73305;PMS5003;61530;51.158;0.880;2023-04-01T04:42:13;3;3;2
73305;PMS5003;61530;51.158;0.880;2023-04-01T04:43:17;6;4;2
73305;PMS5003;61530;51.158;0.880;2023-04-01T04:44:21;3;3;2
73305;PMS5003;61530;51.158;0.880;2023-04-01T04:45:26;4;3;2
73305;PMS5003;61530;51.158;0.880;2023-04-01T04:46:30;5;5;2
73305;PMS5003;61530;51.158;0.880;2023-04-01T04:47:33;4;4;2
73305;PMS5003;61530;51.158;0.880;2023-04-01T04:48:37;4;4;2
73305;PMS5003;61530;51.158;0.880;2023-04-01T04:49:42;4;3;2
73305;PMS5003;61530;51.158;0.880;2023-04-01T04:50:46;4;4;1
73305;PMS5003;61530;51.158;0.880;2023-04-01T04:51:49;2;2;1
73305;PMS5003;61530;51.158;0.880;2023-04-01T04:52:52;3;2;1
73305;PMS5003;61530;51.158;0.880;2023-04-01T04:53:58;4;4;3
73305;PMS5003;61530;51.158;0.880;2023-04-01T04:55:02;4;3;1
73305;PMS5003;61530;51.158;0.880;2023-04-01T04:56:05;4;4;2
73305;PMS5003;61530;51.158;0.880;2023-04-01T04:57:09;3;3;2
73305;PMS5003;61530;51.158;0.880;2023-04-01T05:00:28;3;3;2
73305;PMS5003;61530;51.158;0.880;2023-04-01T05:01:33;3;3;2
73305;PMS5003;61530;51.158;0.880;2023-04-01T05:02:36;3;3;1
73305;PMS5003;61530;51.158;0.880;2023-04-01T05:03:42;4;4;2
73305;PMS5003;61530;51.158;0.880;2023-04-01T05:04:45;4;4;2
73305;PMS5003;61530;51.158;0.880;2023-04-01T05:05:50;3;3;2
73305;PMS5003;61530;51.158;0.880;2023-04-01T05:06:52;3;3;2
73305;PMS5003;61530;51.158;0.880;2023-04-01T05:07:58;4;3;1
73305;PMS5003;61530;51.158;0.880;2023-04-01T05:09:02;3;3;2
73305;PMS5003;61530;51.158;0.880;2023-04-01T05:10:05;3;3;2
73305;PMS5003;61530;51.158;0.880;2023-04-01T05:11:09;4;4;2
73305;PMS5003;61530;51.158;0.880;2023-04-01T05:12:14;3;3;1
73305;PMS5003;61530;51.158;0.880;2023-04-01T05:13:17;2;2;1
73305;PMS5003;61530;51.158;0.880;2023-04-01T05:14:21;2;2;1
73305;PMS5003;61530;51.158;0.880;2023-04-01T05:15:24;2;2;1
73305;PMS5003;61530;51.158;0.880;2023-04-01T05:16:30;2;2;1
73305;PMS5003;61530;51.158;0.880;2023-04-01T05:17:33;3;3;2
73305;PMS5003;61530;51.158;0.880;2023-04-01T05:18:37;3;3;2
73305;PMS5003;61530;51.158;0.880;2023-04-01T05:19:40;3;3;2
73305;PMS5003;61530;51.158;0.880;2023-04-01T05:20:46;2;2;1
73305;PMS5003;61530;51.158;0.880;2023-04-01T05:21:49;3;3;2
73305;PMS5003;61530;51.158;0.880;2023-04-01T05:22:55;6;5;2
73305;PMS5003;61530;51.158;0.880;2023-04-01T05:23:56;6;3;1
73305;PMS5003;61530;51.158;0.880;2023-04-01T05:25:03;5;2;2
73305;PMS5003;61530;51.158;0.880;2023-04-01T05:26:06;3;3;2
73305;PMS5003;61530;51.158;0.880;2023-04-01T05:27:09;4;3;2
73305;PMS5003;61530;51.158;0.880;2023-04-01T05:28:12;3;3;2
73305;PMS5003;61530;51.158;0.880;2023-04-01T05:29:18;3;3;2
73305;PMS5003;61530;51.158;0.880;2023-04-01T05:30:21;2;2;1
73305;PMS5003;61530;51.158;0.880;2023-04-01T05:31:25;2;2;1
73305;PMS5003;61530;51.158;0.880;2023-04-01T05:32:30;3;3;1
73305;PMS5003;61530;51.158;0.880;2023-04-01T05:33:34;3;3;2
73305;PMS5003;61530;51.158;0.880;2023-04-01T05:34:37;3;3;1
73305;PMS5003;61530;51.158;0.880;2023-04-01T05:35:41;3;3;1
73305;PMS5003;61530;51.158;0.880;2023-04-01T05:36:44;2;2;1
73305;PMS5003;61530;51.158;0.880;2023-04-01T05:37:50;2;2;2
73305;PMS5003;61530;51.158;0.880;2023-04-01T05:38:54;3;3;2
73305;PMS5003;61530;51.158;0.880;2023-04-01T05:39:57;3;3;1
73305;PMS5003;61530;51.158;0.880;2023-04-01T05:41:00;2;2;1
73305;PMS5003;61530;51.158;0.880;2023-04-01T05:42:06;2;2;1
73305;PMS5003;61530;51.158;0.880;2023-04-01T05:43:09;3;3;1
73305;PMS5003;61530;51.158;0.880;2023-04-01T05:44:13;2;2;2
73305;PMS5003;61530;51.158;0.880;2023-04-01T05:45:16;5;5;2
73305;PMS5003;61530;51.158;0.880;2023-04-01T05:46:22;3;3;2
73305;PMS5003;61530;51.158;0.880;2023-04-01T05:47:25;3;3;1
73305;PMS5003;61530;51.158;0.880;2023-04-01T05:48:29;4;4;2
73305;PMS5003;61530;51.158;0.880;2023-04-01T05:49:32;4;4;2
73305;PMS5003;61530;51.158;0.880;2023-04-01T05:50:39;3;3;1
73305;PMS5003;61530;51.158;0.880;2023-04-01T05:51:41;3;3;2
73305;PMS5003;61530;51.158;0.880;2023-04-01T05:52:45;4;3;2
73305;PMS5003;61530;51.158;0.880;2023-04-01T05:53:48;5;3;2
73305;PMS5003;61530;51.158;0.880;2023-04-01T05:54:54;4;4;3
73305;PMS5003;61530;51.158;0.880;2023-04-01T05:56:01;6;3;2
73305;PMS5003;61530;51.158;0.880;2023-04-01T05:57:01;4;4;2
73305;PMS5003;61530;51.158;0.880;2023-04-01T05:58:04;3;3;2
73305;PMS5003;61530;51.158;0.880;2023-04-01T05:59:10;5;5;3
73305;PMS5003;61530;51.158;0.880;2023-04-01T06:00:14;6;6;4
73305;PMS5003;61530;51.158;0.880;2023-04-01T06:01:17;5;3;2
73305;PMS5003;61530;51.158;0.880;2023-04-01T06:02:20;4;4;2
73305;PMS5003;61530;51.158;0.880;2023-04-01T06:03:26;6;3;2
73305;PMS5003;61530;51.158;0.880;2023-04-01T06:04:31;4;3;2
73305;PMS5003;61530;51.158;0.880;2023-04-01T06:05:36;5;5;3
73305;PMS5003;61530;51.158;0.880;2023-04-01T06:06:36;6;4;2
73305;PMS5003;61530;51.158;0.880;2023-04-01T06:07:42;4;4;2
73305;PMS5003;61530;51.158;0.880;2023-04-01T06:08:45;4;3;2
73305;PMS5003;61530;51.158;0.880;2023-04-01T06:09:49;4;4;3
73305;PMS5003;61530;51.158;0.880;2023-04-01T06:10:55;5;5;2
73305;PMS5003;61530;51.158;0.880;2023-04-01T06:12:04;4;4;2
73305;PMS5003;61530;51.158;0.880;2023-04-01T06:13:03;6;5;2
73305;PMS5003;61530;51.158;0.880;2023-04-01T06:14:09;3;3;2
73305;PMS5003;61530;51.158;0.880;2023-04-01T06:15:13;6;3;3
73305;PMS5003;61530;51.158;0.880;2023-04-01T06:16:15;6;4;2
73305;PMS5003;61530;51.158;0.880;2023-04-01T06:17:20;4;3;2
73305;PMS5003;61530;51.158;0.880;2023-04-01T06:18:28;4;4;2
73305;PMS5003;61530;51.158;0.880;2023-04-01T06:19:27;4;4;3
73305;PMS5003;61530;51.158;0.880;2023-04-01T06:20:31;6;5;3
73305;PMS5003;61530;51.158;0.880;2023-04-01T06:21:37;5;3;3
73305;PMS5003;61530;51.158;0.880;2023-04-01T06:22:41;4;4;2
73305;PMS5003;61530;51.158;0.880;2023-04-01T06:23:45;6;5;3
73305;PMS5003;61530;51.158;0.880;2023-04-01T06:24:57;6;6;2
73305;PMS5003;61530;51.158;0.880;2023-04-01T06:25:51;4;4;2
73305;PMS5003;61530;51.158;0.880;2023-04-01T06:26:53;7;6;4
73305;PMS5003;61530;51.158;0.880;2023-04-01T06:28:03;5;5;2
73305;PMS5003;61530;51.158;0.880;2023-04-01T06:29:08;5;5;3
73305;PMS5003;61530;51.158;0.880;2023-04-01T06:30:07;5;5;2
73305;PMS5003;61530;51.158;0.880;2023-04-01T06:31:10;4;4;2
73305;PMS5003;61530;51.158;0.880;2023-04-01T06:32:17;5;5;3
73305;PMS5003;61530;51.158;0.880;2023-04-01T06:33:21;5;4;3
73305;PMS5003;61530;51.158;0.880;2023-04-01T06:34:26;7;6;3
73305;PMS5003;61530;51.158;0.880;2023-04-01T06:35:28;3;3;2
73305;PMS5003;61530;51.158;0.880;2023-04-01T06:36:33;6;4;2
73305;PMS5003;61530;51.158;0.880;2023-04-01T06:37:41;3;3;2
73305;PMS5003;61530;51.158;0.880;2023-04-01T06:38:41;3;3;2
73305;PMS5003;61530;51.158;0.880;2023-04-01T06:39:45;5;5;2
73305;PMS5003;61530;51.158;0.880;2023-04-01T06:40:49;4;4;2
73305;PMS5003;61530;51.158;0.880;2023-04-01T06:41:56;3;3;2
73305;PMS5003;61530;51.158;0.880;2023-04-01T06:42:56;3;3;2
73305;PMS5003;61530;51.158;0.880;2023-04-01T06:43:59;6;5;2
73305;PMS5003;61530;51.158;0.880;2023-04-01T06:45:04;3;3;2
73305;PMS5003;61530;51.158;0.880;2023-04-01T06:46:07;4;4;2
73305;PMS5003;61530;51.158;0.880;2023-04-01T06:47:14;4;4;3
73305;PMS5003;61530;51.158;0.880;2023-04-01T06:48:17;5;4;1
73305;PMS5003;61530;51.158;0.880;2023-04-01T06:49:21;4;4;3
73305;PMS5003;61530;51.158;0.880;2023-04-01T06:50:23;3;3;2
73305;PMS5003;61530;51.158;0.880;2023-04-01T06:51:27;5;5;3
73305;PMS5003;61530;51.158;0.880;2023-04-01T06:52:31;4;4;2
73305;PMS5003;61530;51.158;0.880;2023-04-01T06:53:33;4;4;2
73305;PMS5003;61530;51.158;0.880;2023-04-01T06:54:39;4;4;3
73305;PMS5003;61530;51.158;0.880;2023-04-01T06:55:42;6;4;2
73305;PMS5003;61530;51.158;0.880;2023-04-01T06:56:45;4;4;3
73305;PMS5003;61530;51.158;0.880;2023-04-01T06:57:49;9;6;3
73305;PMS5003;61530;51.158;0.880;2023-04-01T06:58:55;5;5;3
73305;PMS5003;61530;51.158;0.880;2023-04-01T06:59:58;4;3;2
73305;PMS5003;61530;51.158;0.880;2023-04-01T07:01:02;4;4;2
73305;PMS5003;61530;51.158;0.880;2023-04-01T07:02:05;7;7;4
73305;PMS5003;61530;51.158;0.880;2023-04-01T07:03:13;6;5;3
73305;PMS5003;61530;51.158;0.880;2023-04-01T07:04:14;7;5;3
73305;PMS5003;61530;51.158;0.880;2023-04-01T07:05:17;6;6;2
73305;PMS5003;61530;51.158;0.880;2023-04-01T07:06:23;8;8;5
73305;PMS5003;61530;51.158;0.880;2023-04-01T07:07:29;6;4;3
73305;PMS5003;61530;51.158;0.880;2023-04-01T07:08:29;7;6;3
73305;PMS5003;61530;51.158;0.880;2023-04-01T07:09:34;5;5;2
73305;PMS5003;61530;51.158;0.880;2023-04-01T07:10:40;6;5;3
73305;PMS5003;61530;51.158;0.880;2023-04-01T07:11:42;6;6;3
73305;PMS5003;61530;51.158;0.880;2023-04-01T07:12:46;7;6;3
73305;PMS5003;61530;51.158;0.880;2023-04-01T07:13:50;3;3;2
73305;PMS5003;61530;51.158;0.880;2023-04-01T07:14:52;7;6;4
73305;PMS5003;61530;51.158;0.880;2023-04-01T07:15:59;6;6;3
73305;PMS5003;61530;51.158;0.880;2023-04-01T07:17:04;5;5;2
73305;PMS5003;61530;51.158;0.880;2023-04-01T07:18:05;6;4;3
73305;PMS5003;61530;51.158;0.880;2023-04-01T07:19:09;7;7;3
73305;PMS5003;61530;51.158;0.880;2023-04-01T07:20:17;5;5;2
73305;PMS5003;61530;51.158;0.880;2023-04-01T07:21:22;5;5;3
73305;PMS5003;61530;51.158;0.880;2023-04-01T07:22:24;6;6;3
73305;PMS5003;61530;51.158;0.880;2023-04-01T07:23:25;6;5;3
73305;PMS5003;61530;51.158;0.880;2023-04-01T07:24:31;4;4;2
73305;PMS5003;61530;51.158;0.880;2023-04-01T07:25:34;6;5;2
73305;PMS5003;61530;51.158;0.880;2023-04-01T07:26:37;5;3;2